Time;durP1;ratioP1;P1;durP2;ratioP2;P2;SDS_P1;SDS_P2;PMS_P1;PMS_P2;Temp;Humidity;BMP_temperature;BMP_pressure;BME280_temperature;BME280_humidity;BME280_pressure;Samples;Min_cycle;Max_cycle;Signal;HPM_P1;HPM_P2
2021/06/10 00:00:11;;;;;;;0.50;0.50;;;23.30;47.50;;;;;;5123946;28;20087;-41
2021/06/10 00:02:37;;;;;;;0.98;0.60;;;23.30;46.70;;;;;;5124343;28;20040;-41
2021/06/10 00:05:05;;;;;;;0.80;0.40;;;23.30;47.70;;;;;;5124135;28;20028;-42
2021/06/10 00:07:31;;;;;;;0.50;0.50;;;23.30;47.50;;;;;;5123718;28;20042;-41
2021/06/10 00:09:57;;;;;;;0.50;0.50;;;23.30;48.30;;;;;;5123558;28;20134;-41
2021/06/10 00:12:23;;;;;;;0.45;0.40;;;23.20;46.70;;;;;;5106011;28;20032;-41
2021/06/10 00:14:50;;;;;;;1.02;0.63;;;23.20;48.40;;;;;;5123228;28;20027;-41
2021/06/10 00:17:16;;;;;;;0.68;0.50;;;23.20;47.40;;;;;;5123761;28;20057;-41
2021/06/10 00:19:42;;;;;;;0.73;0.50;;;23.10;48.40;;;;;;5123648;28;20035;-41
2021/06/10 00:22:09;;;;;;;0.82;0.63;;;23.10;47.50;;;;;;5123791;28;20042;-41
2021/06/10 00:24:35;;;;;;;0.93;0.50;;;23.10;46.30;;;;;;5123538;28;20119;-41
2021/06/10 00:27:01;;;;;;;0.47;0.40;;;23.00;46.90;;;;;;5123698;28;20023;-44
2021/06/10 00:29:27;;;;;;;0.60;0.50;;;23.00;48.80;;;;;;5123570;28;20096;-41
2021/06/10 00:31:53;;;;;;;0.35;0.30;;;23.00;50.40;;;;;;5123800;28;20027;-41
2021/06/10 00:34:20;;;;;;;0.50;0.50;;;22.90;51.50;;;;;;5123665;28;20036;-41
2021/06/10 00:36:46;;;;;;;0.40;0.40;;;22.90;52.90;;;;;;5123647;28;20024;-41
2021/06/10 00:39:12;;;;;;;0.65;0.60;;;22.90;54.00;;;;;;5123453;28;20023;-41
2021/06/10 00:41:38;;;;;;;0.70;0.50;;;22.90;54.60;;;;;;5112175;28;20108;-41
2021/06/10 00:44:06;;;;;;;0.50;0.40;;;22.90;55.60;;;;;;5116784;28;20034;-41
2021/06/10 00:46:33;;;;;;;0.55;0.40;;;22.90;56.40;;;;;;5123201;28;20043;-41
2021/06/10 00:48:59;;;;;;;0.67;0.60;;;23.00;56.90;;;;;;5121147;28;20031;-41
2021/06/10 00:51:26;;;;;;;0.73;0.50;;;23.00;57.20;;;;;;5123436;28;20256;-41
2021/06/10 00:53:52;;;;;;;0.63;0.50;;;23.00;57.80;;;;;;5123323;28;20765;-41
2021/06/10 00:56:18;;;;;;;0.30;0.30;;;23.00;58.20;;;;;;5121773;28;20024;-42
2021/06/10 00:58:44;;;;;;;0.40;0.40;;;23.00;58.40;;;;;;5123476;28;20032;-41
2021/06/10 01:01:10;;;;;;;0.77;0.45;;;23.00;58.70;;;;;;5123157;28;20024;-41
2021/06/10 01:03:37;;;;;;;0.60;0.50;;;23.00;59.00;;;;;;5122959;28;20031;-41
2021/06/10 01:06:12;;;;;;;0.68;0.50;;;23.00;59.20;;;;;;5123166;28;20032;-42
2021/06/10 01:08:59;;;;;;;0.40;0.38;;;23.00;59.50;;;;;;5105455;28;20040;-42
2021/06/10 01:11:45;;;;;;;0.70;0.50;;;23.00;59.60;;;;;;5123037;28;20051;-40
2021/06/10 01:14:34;;;;;;;0.60;0.60;;;23.00;60.10;;;;;;5121383;28;20035;-41
2021/06/10 01:17:01;;;;;;;0.45;0.30;;;23.00;60.20;;;;;;5101592;28;20559;-41
2021/06/10 01:19:42;;;;;;;0.35;0.30;;;23.00;60.50;;;;;;5118436;28;20173;-41
2021/06/10 01:22:17;;;;;;;0.82;0.60;;;23.00;60.50;;;;;;5122865;28;20043;-41
2021/06/10 01:24:48;;;;;;;0.57;0.40;;;23.00;60.70;;;;;;5124131;28;20035;-41
2021/06/10 01:27:28;;;;;;;0.43;0.40;;;23.00;60.90;;;;;;5127217;27;20046;-41
2021/06/10 01:30:04;;;;;;;0.40;0.40;;;23.00;61.10;;;;;;5127244;28;20028;-42
2021/06/10 01:32:31;;;;;;;0.90;0.60;;;23.00;60.80;;;;;;5127004;28;20024;-41
2021/06/10 01:34:57;;;;;;;0.77;0.50;;;23.10;60.70;;;;;;5108720;28;20024;-41
2021/06/10 01:37:23;;;;;;;0.40;0.40;;;23.10;61.00;;;;;;5125748;28;20023;-42
2021/06/10 01:39:50;;;;;;;0.50;0.40;;;23.10;61.70;;;;;;5125260;28;20024;-42
2021/06/10 01:42:16;;;;;;;0.60;0.40;;;23.10;61.10;;;;;;5125146;28;20031;-43
2021/06/10 01:44:42;;;;;;;0.38;0.38;;;23.10;61.10;;;;;;5108671;28;20043;-42
2021/06/10 01:47:09;;;;;;;0.50;0.50;;;23.10;61.40;;;;;;5124935;28;20035;-42
2021/06/10 01:49:36;;;;;;;0.47;0.40;;;23.10;61.60;;;;;;5126626;28;20028;-42
2021/06/10 01:52:04;;;;;;;0.63;0.63;;;23.10;61.60;;;;;;5125336;28;20015;-42
2021/06/10 01:54:31;;;;;;;0.55;0.50;;;23.10;62.00;;;;;;5125132;28;20062;-41
2021/06/10 01:56:57;;;;;;;0.50;0.50;;;23.10;62.30;;;;;;5125241;28;20036;-42
2021/06/10 01:59:23;;;;;;;0.68;0.50;;;23.10;62.70;;;;;;5125039;28;20050;-42
2021/06/10 02:01:50;;;;;;;0.60;0.50;;;23.10;62.80;;;;;;5107845;28;20032;-42
2021/06/10 02:04:16;;;;;;;0.67;0.67;;;23.10;63.00;;;;;;5108274;28;20034;-43
2021/06/10 02:06:42;;;;;;;0.98;0.43;;;23.10;63.20;;;;;;5124984;28;20080;-43
2021/06/10 02:09:10;;;;;;;0.75;0.70;;;23.10;63.40;;;;;;5107783;28;20125;-41
2021/06/10 02:11:36;;;;;;;0.63;0.40;;;23.10;63.70;;;;;;5124594;28;20020;-42
2021/06/10 02:14:03;;;;;;;0.70;0.50;;;23.10;64.40;;;;;;5124855;28;20027;-42
2021/06/10 02:16:29;;;;;;;0.70;0.50;;;23.10;63.90;;;;;;5126114;28;20059;-42
2021/06/10 02:18:55;;;;;;;1.40;0.40;;;23.10;63.90;;;;;;5104278;28;20568;-42
2021/06/10 02:21:22;;;;;;;0.60;0.45;;;23.10;63.80;;;;;;5104019;28;20040;-44
2021/06/10 02:23:48;;;;;;;0.70;0.47;;;23.10;63.80;;;;;;5105869;28;20032;-42
2021/06/10 02:26:14;;;;;;;0.70;0.70;;;23.20;64.00;;;;;;5105437;28;20036;-42
2021/06/10 02:28:41;;;;;;;0.52;0.50;;;23.20;64.20;;;;;;5105458;28;20346;-42
2021/06/10 02:31:08;;;;;;;1.05;0.63;;;23.20;64.10;;;;;;5105142;28;20028;-42
2021/06/10 02:33:36;;;;;;;1.00;0.70;;;23.20;64.20;;;;;;5105665;28;20028;-43
2021/06/10 02:36:04;;;;;;;0.80;0.55;;;23.20;64.30;;;;;;5105095;28;20028;-43
2021/06/10 02:38:30;;;;;;;0.55;0.50;;;23.20;64.50;;;;;;5105341;28;20479;-42
2021/06/10 02:40:56;;;;;;;0.53;0.53;;;23.20;64.50;;;;;;5087397;28;20028;-42
2021/06/10 02:43:22;;;;;;;1.10;0.60;;;23.20;64.50;;;;;;5107565;28;20035;-42
2021/06/10 02:45:49;;;;;;;0.73;0.60;;;23.20;64.90;;;;;;5120770;28;20673;-43
2021/06/10 02:48:15;;;;;;;1.05;0.47;;;23.20;65.00;;;;;;5123982;28;20495;-42
2021/06/10 02:50:42;;;;;;;0.95;0.70;;;23.20;65.20;;;;;;5124320;28;20380;-42
2021/06/10 02:53:17;;;;;;;0.70;0.52;;;23.20;65.20;;;;;;5125157;28;20042;-43
2021/06/10 02:55:44;;;;;;;0.80;0.55;;;23.20;65.40;;;;;;5125055;28;20019;-43
2021/06/10 02:58:12;;;;;;;;;;;23.10;65.50;;;;;;5107393;28;20063;-42
2021/06/10 03:00:38;;;;;;;0.73;0.60;;;23.20;65.70;;;;;;5124146;28;19904;-42
2021/06/10 03:03:05;;;;;;;0.95;0.60;;;23.20;65.70;;;;;;5123604;28;20036;-42
2021/06/10 03:05:31;;;;;;;0.93;0.65;;;23.20;65.80;;;;;;5106943;28;20024;-42
2021/06/10 03:07:57;;;;;;;0.70;0.70;;;23.20;65.80;;;;;;5125087;28;20036;-42
2021/06/10 03:10:26;;;;;;;0.98;0.60;;;23.20;65.80;;;;;;5106271;28;20107;-42
2021/06/10 03:12:52;;;;;;;0.50;0.50;;;23.20;66.00;;;;;;5123621;28;20030;-41
2021/06/10 03:15:18;;;;;;;1.27;0.50;;;23.20;65.80;;;;;;5106902;28;20079;-42
2021/06/10 03:17:44;;;;;;;1.20;0.60;;;23.20;65.90;;;;;;5123248;28;20035;-43
2021/06/10 03:20:11;;;;;;;0.85;0.50;;;23.20;65.80;;;;;;5122888;28;20028;-41
2021/06/10 03:22:37;;;;;;;1.10;0.53;;;23.20;65.90;;;;;;5104260;28;20518;-42
2021/06/10 03:25:05;;;;;;;0.93;0.60;;;23.20;65.90;;;;;;5103066;28;20039;-42
2021/06/10 03:27:32;;;;;;;1.55;0.40;;;23.20;66.00;;;;;;5104386;28;20089;-42
2021/06/10 03:29:58;;;;;;;0.50;0.50;;;23.20;66.10;;;;;;5104075;28;20020;-42
2021/06/10 03:32:27;;;;;;;0.73;0.65;;;23.20;66.00;;;;;;5104396;28;20032;-42
2021/06/10 03:34:56;;;;;;;1.40;0.60;;;23.20;66.40;;;;;;5103825;28;20058;-42
2021/06/10 03:37:23;;;;;;;0.75;0.52;;;23.20;66.50;;;;;;5104104;28;20032;-42
2021/06/10 03:39:50;;;;;;;0.70;0.60;;;23.20;66.60;;;;;;5103919;28;20602;-41
2021/06/10 03:42:18;;;;;;;0.55;0.47;;;23.20;66.80;;;;;;5102788;28;20044;-41
2021/06/10 03:44:44;;;;;;;;;;;23.20;66.80;;;;;;5103274;28;20392;-42
2021/06/10 03:47:13;;;;;;;0.73;0.50;;;23.10;66.80;;;;;;5101601;28;19911;-42
2021/06/10 03:49:39;;;;;;;0.65;0.50;;;23.20;67.00;;;;;;5104317;28;20031;-41
2021/06/10 03:52:05;;;;;;;1.08;0.70;;;23.20;67.10;;;;;;5108117;28;20031;-42
2021/06/10 03:54:32;;;;;;;0.85;0.55;;;23.10;67.20;;;;;;5103816;28;20039;-42
2021/06/10 03:56:58;;;;;;;0.63;0.50;;;23.10;66.90;;;;;;5103469;28;20048;-41
2021/06/10 03:59:24;;;;;;;0.60;0.45;;;23.20;67.10;;;;;;5103843;28;20024;-41
2021/06/10 04:01:50;;;;;;;1.00;0.60;;;23.20;66.80;;;;;;5103582;28;20650;-43
2021/06/10 04:04:20;;;;;;;1.17;0.50;;;23.20;67.00;;;;;;5103943;28;20035;-43
2021/06/10 04:06:47;;;;;;;0.88;0.55;;;23.20;66.90;;;;;;5103334;28;20028;-43
2021/06/10 04:09:13;;;;;;;0.50;0.40;;;23.20;66.70;;;;;;5102067;28;20028;-42
2021/06/10 04:11:39;;;;;;;0.50;0.50;;;23.20;67.10;;;;;;5103354;28;20039;-41
2021/06/10 04:14:06;;;;;;;0.50;0.40;;;23.20;67.20;;;;;;5103436;28;20395;-42
2021/06/10 04:16:32;;;;;;;0.50;0.47;;;23.20;67.20;;;;;;5103709;28;20084;-41
2021/06/10 04:18:58;;;;;;;0.95;0.50;;;23.20;67.20;;;;;;5114953;28;20669;-42
2021/06/10 04:21:24;;;;;;;0.40;0.40;;;23.20;67.30;;;;;;5123386;28;20031;-41
2021/06/10 04:23:51;;;;;;;1.30;0.50;;;23.20;67.10;;;;;;5122350;28;20028;-41
2021/06/10 04:26:17;;;;;;;0.47;0.43;;;23.20;67.30;;;;;;5123689;28;20020;-42
2021/06/10 04:28:47;;;;;;;0.70;0.60;;;23.20;67.50;;;;;;5123924;28;20024;-42
2021/06/10 04:31:17;;;;;;;0.50;0.40;;;23.20;67.40;;;;;;5123318;28;20038;-42
2021/06/10 04:33:44;;;;;;;0.60;0.45;;;23.10;67.60;;;;;;5123709;28;20024;-42
2021/06/10 04:36:10;;;;;;;0.90;0.50;;;23.10;67.70;;;;;;5123505;28;20087;-42
2021/06/10 04:38:40;;;;;;;0.40;0.40;;;23.10;67.80;;;;;;5123445;28;20028;-43
2021/06/10 04:41:06;;;;;;;0.50;0.50;;;23.10;67.90;;;;;;5116685;28;20102;-43
2021/06/10 04:43:32;;;;;;;0.73;0.57;;;23.10;67.90;;;;;;5103318;28;20032;-42
2021/06/10 04:45:58;;;;;;;0.47;0.47;;;23.10;68.60;;;;;;5103034;28;20028;-42
2021/06/10 04:48:25;;;;;;;0.60;0.47;;;23.10;68.00;;;;;;5111306;28;20044;-41
2021/06/10 04:50:51;;;;;;;0.52;0.50;;;23.10;67.90;;;;;;5123040;28;20128;-42
2021/06/10 04:53:19;;;;;;;0.40;0.40;;;23.10;67.70;;;;;;5123045;28;20111;-43
2021/06/10 04:55:45;;;;;;;0.52;0.52;;;23.10;67.90;;;;;;5123446;28;20033;-41
2021/06/10 04:58:12;;;;;;;1.20;0.50;;;23.10;67.80;;;;;;5122970;28;20093;-41
2021/06/10 05:00:39;;;;;;;0.40;0.40;;;23.10;67.90;;;;;;5122868;28;20024;-43
2021/06/10 05:03:06;;;;;;;0.70;0.50;;;23.10;67.80;;;;;;5123500;28;20039;-41
2021/06/10 05:05:32;;;;;;;0.45;0.40;;;23.10;67.90;;;;;;5122738;28;20055;-43
2021/06/10 05:07:58;;;;;;;1.45;0.60;;;23.10;67.70;;;;;;5123136;28;20064;-42
2021/06/10 05:10:24;;;;;;;0.40;0.40;;;23.10;67.60;;;;;;5123139;28;20059;-41
2021/06/10 05:12:50;;;;;;;0.52;0.40;;;23.10;68.00;;;;;;5123065;28;20049;-41
2021/06/10 05:15:17;;;;;;;0.75;0.50;;;23.10;68.00;;;;;;5123147;28;20039;-43
2021/06/10 05:17:43;;;;;;;0.83;0.60;;;23.10;68.30;;;;;;5122794;28;20034;-43
2021/06/10 05:20:10;;;;;;;0.65;0.40;;;23.10;68.20;;;;;;5123441;28;20062;-42
2021/06/10 05:22:36;;;;;;;0.57;0.47;;;23.10;68.30;;;;;;5122409;28;20031;-42
2021/06/10 05:25:03;;;;;;;0.50;0.40;;;23.10;68.40;;;;;;5121571;28;20031;-42
2021/06/10 05:27:29;;;;;;;0.95;0.45;;;23.10;68.40;;;;;;5123151;28;20043;-43
2021/06/10 05:29:55;;;;;;;0.50;0.50;;;23.10;68.30;;;;;;5123165;28;20047;-41
2021/06/10 05:32:21;;;;;;;0.50;0.43;;;23.10;68.40;;;;;;5122866;28;20027;-42
2021/06/10 05:34:48;;;;;;;0.30;0.30;;;23.10;68.30;;;;;;5123079;28;20031;-42
2021/06/10 05:37:14;;;;;;;1.05;0.50;;;23.00;68.40;;;;;;5123039;28;20027;-42
2021/06/10 05:39:40;;;;;;;0.40;0.40;;;23.00;68.30;;;;;;5122905;28;20091;-41
2021/06/10 05:42:06;;;;;;;0.50;0.50;;;23.00;68.20;;;;;;5107746;28;20097;-43
2021/06/10 05:44:33;;;;;;;0.50;0.40;;;23.00;68.00;;;;;;5102661;28;20651;-42
2021/06/10 05:46:59;;;;;;;0.40;0.40;;;23.00;68.10;;;;;;5105783;28;20034;-41
2021/06/10 05:49:25;;;;;;;0.43;0.40;;;23.00;68.00;;;;;;5122570;28;20552;-42
2021/06/10 05:51:51;;;;;;;0.50;0.40;;;23.00;68.10;;;;;;5122328;28;20042;-42
2021/06/10 05:54:18;;;;;;;0.50;0.50;;;23.00;68.00;;;;;;5122876;28;20036;-42
2021/06/10 05:56:44;;;;;;;0.50;0.50;;;23.00;68.00;;;;;;5122751;28;20130;-42
2021/06/10 05:59:10;;;;;;;0.50;0.50;;;23.00;68.00;;;;;;5122903;28;20034;-42
2021/06/10 06:01:36;;;;;;;0.77;0.50;;;23.00;68.00;;;;;;5122442;28;20016;-43
2021/06/10 06:04:02;;;;;;;0.45;0.40;;;23.00;68.00;;;;;;5122865;28;20023;-42
2021/06/10 06:06:29;;;;;;;0.50;0.40;;;23.00;69.40;;;;;;5121159;28;20024;-42
2021/06/10 06:08:55;;;;;;;0.45;0.45;;;23.00;68.60;;;;;;5122819;28;20027;-41
2021/06/10 06:11:21;;;;;;;0.40;0.40;;;23.00;68.60;;;;;;5124792;28;20396;-42
2021/06/10 06:13:51;;;;;;;0.40;0.40;;;23.00;68.80;;;;;;5126268;28;20114;-41
2021/06/10 06:16:19;;;;;;;0.30;0.30;;;23.00;68.70;;;;;;5126357;28;20034;-42
2021/06/10 06:18:45;;;;;;;0.55;0.50;;;23.00;68.80;;;;;;5126227;28;20031;-41
2021/06/10 06:21:12;;;;;;;0.55;0.40;;;23.00;68.80;;;;;;5124799;28;20024;-41
2021/06/10 06:23:41;;;;;;;0.55;0.47;;;23.00;68.70;;;;;;5126074;28;20024;-41
2021/06/10 06:26:09;;;;;;;0.70;0.50;;;23.00;68.90;;;;;;5124687;28;20020;-43
2021/06/10 06:28:36;;;;;;;0.50;0.43;;;22.90;68.80;;;;;;5126132;28;20445;-42
2021/06/10 06:31:02;;;;;;;0.57;0.43;;;22.90;68.40;;;;;;5126071;28;20028;-41
2021/06/10 06:33:28;;;;;;;1.45;0.30;;;23.00;68.40;;;;;;5125870;28;20063;-43
2021/06/10 06:35:55;;;;;;;0.50;0.40;;;23.00;68.40;;;;;;5126125;28;20024;-42
2021/06/10 06:38:21;;;;;;;0.30;0.30;;;22.90;68.30;;;;;;5125689;28;20027;-41
2021/06/10 06:40:51;;;;;;;0.50;0.40;;;22.90;68.30;;;;;;5125901;28;20039;-42
2021/06/10 06:43:17;;;;;;;0.70;0.40;;;22.90;68.30;;;;;;5125491;28;20260;-42
2021/06/10 06:45:43;;;;;;;0.57;0.40;;;22.90;68.30;;;;;;5125784;28;20028;-42
2021/06/10 06:48:10;;;;;;;0.50;0.47;;;22.90;68.30;;;;;;5125335;28;20032;-41
2021/06/10 06:50:36;;;;;;;0.93;0.30;;;22.90;68.40;;;;;;5124069;28;20027;-42
2021/06/10 06:53:03;;;;;;;0.45;0.45;;;22.90;68.30;;;;;;5125440;28;20027;-42
2021/06/10 06:55:29;;;;;;;0.30;0.30;;;22.90;68.80;;;;;;5125457;28;20765;-42
2021/06/10 06:57:57;;;;;;;1.05;0.40;;;22.90;68.90;;;;;;5125372;28;20048;-43
2021/06/10 07:00:24;;;;;;;0.40;0.40;;;22.90;68.80;;;;;;5125493;28;20024;-42
2021/06/10 07:02:50;;;;;;;0.40;0.30;;;22.80;69.00;;;;;;5125081;28;20024;-41
2021/06/10 07:05:17;;;;;;;0.32;0.32;;;22.90;69.00;;;;;;5125207;28;20035;-42
2021/06/10 07:07:43;;;;;;;0.63;0.50;;;22.90;68.80;;;;;;5125038;28;20388;-42
2021/06/10 07:10:10;;;;;;;0.38;0.30;;;22.90;69.00;;;;;;5125189;28;20083;-41
2021/06/10 07:12:36;;;;;;;0.55;0.40;;;22.90;68.80;;;;;;5125014;28;20024;-42
2021/06/10 07:15:03;;;;;;;0.63;0.47;;;22.90;68.90;;;;;;5125121;27;20028;-41
2021/06/10 07:17:30;;;;;;;0.40;0.30;;;22.90;68.90;;;;;;5125303;28;20027;-41
2021/06/10 07:19:57;;;;;;;0.50;0.40;;;22.90;68.80;;;;;;5124793;28;20026;-41
2021/06/10 07:22:23;;;;;;;;;;;22.80;68.80;;;;;;5124646;28;20043;-43
2021/06/10 07:24:50;;;;;;;0.68;0.40;;;22.80;68.70;;;;;;5124771;28;20073;-42
2021/06/10 07:27:16;;;;;;;0.30;0.30;;;22.90;68.70;;;;;;5124887;28;20193;-42
2021/06/10 07:29:43;;;;;;;0.40;0.40;;;22.80;69.00;;;;;;5124928;28;20043;-42
2021/06/10 07:32:09;;;;;;;0.68;0.30;;;22.80;69.00;;;;;;5125040;28;20028;-41
2021/06/10 07:34:37;;;;;;;0.40;0.30;;;22.80;69.10;;;;;;5124723;28;20030;-41
2021/06/10 07:37:06;;;;;;;0.40;0.40;;;22.80;68.90;;;;;;5124909;28;20019;-42
2021/06/10 07:39:33;;;;;;;0.70;0.50;;;22.80;68.90;;;;;;5124665;28;20024;-41
2021/06/10 07:41:59;;;;;;;0.40;0.40;;;22.80;68.90;;;;;;5110536;28;20668;-42
2021/06/10 07:44:26;;;;;;;0.40;0.30;;;22.80;69.20;;;;;;5103916;28;20068;-41
2021/06/10 07:46:52;;;;;;;0.30;0.30;;;22.80;69.30;;;;;;5103903;28;20101;-41
2021/06/10 07:49:19;;;;;;;0.60;0.40;;;22.80;69.30;;;;;;5120188;28;20027;-41
2021/06/10 07:51:45;;;;;;;0.52;0.47;;;22.80;69.30;;;;;;5123137;28;20034;-42
2021/06/10 07:54:11;;;;;;;0.57;0.32;;;22.80;69.20;;;;;;5124195;28;20034;-42
2021/06/10 07:56:37;;;;;;;0.32;0.32;;;22.80;69.60;;;;;;5122727;28;20733;-41
2021/06/10 07:59:03;;;;;;;0.45;0.45;;;22.80;69.40;;;;;;5124543;28;20039;-43
2021/06/10 08:01:29;;;;;;;0.30;0.30;;;22.80;69.50;;;;;;5124457;28;20023;-41
2021/06/10 08:03:56;;;;;;;0.30;0.30;;;22.80;69.70;;;;;;5124012;28;20020;-42
2021/06/10 08:06:22;;;;;;;0.40;0.40;;;22.80;69.30;;;;;;5122699;28;20038;-42
2021/06/10 08:08:48;;;;;;;0.47;0.47;;;22.80;69.30;;;;;;5124303;28;20039;-42
2021/06/10 08:11:15;;;;;;;0.40;0.40;;;22.70;69.10;;;;;;5122783;28;20027;-43
2021/06/10 08:13:41;;;;;;;1.08;0.40;;;22.70;69.30;;;;;;5123805;28;20028;-43
2021/06/10 08:16:07;;;;;;;0.40;0.40;;;22.70;69.10;;;;;;5124079;28;20034;-41
2021/06/10 08:18:33;;;;;;;0.30;0.30;;;22.70;69.00;;;;;;5123554;28;20488;-41
2021/06/10 08:21:00;;;;;;;0.30;0.30;;;22.70;69.20;;;;;;5124077;28;20044;-41
2021/06/10 08:23:26;;;;;;;0.50;0.40;;;22.70;69.20;;;;;;5123745;28;20574;-43
2021/06/10 08:25:57;;;;;;;0.40;0.40;;;22.70;69.50;;;;;;5123772;28;20184;-43
2021/06/10 08:28:23;;;;;;;0.43;0.40;;;22.70;69.10;;;;;;5124001;28;20476;-41
2021/06/10 08:30:50;;;;;;;0.28;0.28;;;22.70;69.20;;;;;;5122433;28;20027;-42
2021/06/10 08:33:16;;;;;;;0.45;0.40;;;22.70;69.30;;;;;;5123419;28;20024;-42
2021/06/10 08:35:43;;;;;;;0.30;0.30;;;22.70;69.50;;;;;;5123590;28;20019;-42
2021/06/10 08:38:09;;;;;;;0.57;0.40;;;22.70;69.60;;;;;;5123640;28;20055;-42
2021/06/10 08:40:37;;;;;;;0.30;0.30;;;22.70;69.60;;;;;;5121438;28;20030;-41
2021/06/10 08:43:04;;;;;;;0.40;0.40;;;22.70;69.70;;;;;;5103288;28;20036;-41
2021/06/10 08:45:30;;;;;;;;;;;22.70;69.70;;;;;;5103397;28;20031;-42
2021/06/10 08:47:58;;;;;;;0.40;0.40;;;22.70;69.90;;;;;;5117813;28;19919;-42
2021/06/10 08:50:26;;;;;;;0.30;0.30;;;22.70;70.10;;;;;;5121628;28;20034;-42
2021/06/10 08:52:53;;;;;;;0.35;0.30;;;22.60;70.00;;;;;;5103389;28;20058;-42
2021/06/10 08:55:20;;;;;;;0.35;0.35;;;22.60;70.00;;;;;;5102561;28;20028;-41
2021/06/10 08:57:46;;;;;;;0.32;0.30;;;22.60;70.00;;;;;;5103156;28;20044;-42
2021/06/10 09:00:13;;;;;;;0.50;0.40;;;22.60;69.50;;;;;;5115056;28;20030;-43
2021/06/10 09:02:39;;;;;;;0.30;0.30;;;22.60;69.40;;;;;;5123603;28;20616;-42
2021/06/10 09:05:11;;;;;;;0.73;0.30;;;22.60;69.40;;;;;;5123292;28;20024;-42
2021/06/10 09:07:38;;;;;;;1.60;0.30;;;22.60;69.40;;;;;;5121545;28;20047;-42
2021/06/10 09:10:08;;;;;;;0.30;0.30;;;22.60;69.40;;;;;;5123454;28;20031;-42
2021/06/10 09:12:51;;;;;;;0.30;0.30;;;22.60;69.50;;;;;;5123462;28;20031;-43
2021/06/10 09:15:18;;;;;;;0.52;0.30;;;22.60;69.40;;;;;;5123130;28;20130;-42
2021/06/10 09:17:44;;;;;;;0.30;0.25;;;22.60;69.50;;;;;;5123156;28;20083;-43
2021/06/10 09:20:19;;;;;;;0.38;0.25;;;22.60;69.50;;;;;;5123578;28;20042;-43
2021/06/10 09:22:46;;;;;;;0.40;0.30;;;22.60;69.60;;;;;;5103071;28;20032;-41
2021/06/10 09:25:16;;;;;;;0.25;0.25;;;22.60;69.80;;;;;;5102504;28;20092;-42
2021/06/10 09:27:55;;;;;;;0.20;0.20;;;22.60;69.70;;;;;;5101481;28;20044;-43
2021/06/10 09:30:29;;;;;;;0.80;0.30;;;22.60;69.90;;;;;;5102606;28;20088;-42
2021/06/10 09:32:55;;;;;;;1.17;0.35;;;22.60;69.90;;;;;;5101560;28;20119;-43
2021/06/10 09:35:32;;;;;;;0.30;0.30;;;22.60;70.20;;;;;;5102841;28;20646;-42
2021/06/10 09:38:06;;;;;;;0.35;0.35;;;22.50;70.20;;;;;;5102650;28;20035;-41
2021/06/10 09:40:33;;;;;;;0.30;0.30;;;22.60;70.00;;;;;;5104704;28;20031;-41
2021/06/10 09:42:59;;;;;;;0.30;0.30;;;22.50;70.00;;;;;;5123007;28;20031;-42
2021/06/10 09:45:28;;;;;;;0.30;0.27;;;22.50;70.10;;;;;;5123492;28;20034;-42
2021/06/10 09:47:56;;;;;;;0.30;0.30;;;22.50;70.10;;;;;;5125484;28;20047;-43
2021/06/10 09:50:29;;;;;;;1.00;0.30;;;22.50;69.90;;;;;;5126375;28;20062;-44
2021/06/10 09:53:17;;;;;;;0.30;0.30;;;22.50;69.80;;;;;;5127056;28;20034;-41
2021/06/10 09:55:54;;;;;;;0.30;0.30;;;22.50;69.70;;;;;;5126777;28;20030;-42
2021/06/10 09:58:38;;;;;;;0.30;0.25;;;22.50;69.70;;;;;;5126884;28;20044;-42
2021/06/10 10:01:11;;;;;;;0.73;0.40;;;22.50;69.80;;;;;;5126712;28;20043;-41
2021/06/10 10:03:41;;;;;;;0.22;0.22;;;22.50;69.90;;;;;;5126872;28;20031;-41
2021/06/10 10:08:51;;;;;;;0.20;0.20;;;22.50;69.80;;;;;;5126804;28;20039;-42
2021/06/10 10:11:18;;;;;;;1.27;0.40;;;22.50;69.80;;;;;;5126303;28;20023;-41
2021/06/10 10:13:46;;;;;;;0.30;0.30;;;22.50;69.90;;;;;;5125157;28;20057;-42
2021/06/10 10:16:12;;;;;;;0.22;0.22;;;22.50;69.90;;;;;;5126361;28;20066;-42
2021/06/10 10:18:39;;;;;;;0.30;0.30;;;22.50;69.90;;;;;;5126303;28;20085;-43
2021/06/10 10:21:06;;;;;;;0.45;0.30;;;22.50;70.00;;;;;;5126585;28;20110;-43
2021/06/10 10:23:33;;;;;;;0.80;0.25;;;22.50;70.00;;;;;;5124906;28;20057;-41
2021/06/10 10:26:00;;;;;;;0.30;0.20;;;22.40;70.30;;;;;;5124751;28;20020;-42
2021/06/10 10:28:30;;;;;;;2.25;0.30;;;22.40;70.00;;;;;;5126392;28;20035;-41
2021/06/10 10:30:57;;;;;;;0.50;0.40;;;22.40;69.90;;;;;;5126312;28;20027;-43
2021/06/10 10:33:25;;;;;;;0.30;0.30;;;22.40;70.00;;;;;;5125090;28;20026;-42
2021/06/10 10:35:58;;;;;;;0.50;0.25;;;22.40;70.00;;;;;;5125822;28;20031;-41
2021/06/10 10:38:35;;;;;;;0.30;0.20;;;22.40;70.00;;;;;;5124604;28;20463;-42
2021/06/10 10:41:11;;;;;;;0.20;0.20;;;22.40;69.90;;;;;;5125860;28;20028;-43
2021/06/10 10:43:38;;;;;;;0.40;0.30;;;22.40;70.00;;;;;;5126250;28;20042;-41
2021/06/10 10:46:18;;;;;;;1.55;0.30;;;22.40;70.10;;;;;;5125425;28;20032;-42
2021/06/10 10:48:46;;;;;;;0.50;0.30;;;22.40;70.00;;;;;;5125498;28;20808;-42
2021/06/10 10:51:41;;;;;;;0.47;0.28;;;22.40;70.10;;;;;;5125666;28;20034;-43
2021/06/10 10:54:33;;;;;;;0.30;0.30;;;22.40;70.10;;;;;;5112120;28;20036;-41
2021/06/10 10:56:59;;;;;;;0.45;0.32;;;22.40;70.10;;;;;;5124790;28;20597;-41
2021/06/10 10:59:25;;;;;;;0.38;0.32;;;22.40;70.30;;;;;;5124364;28;20046;-41
2021/06/10 11:02:17;;;;;;;0.20;0.20;;;22.40;70.30;;;;;;5125330;28;20058;-42
2021/06/10 11:04:59;;;;;;;0.45;0.40;;;22.40;70.30;;;;;;5125538;28;20030;-42
2021/06/10 11:07:39;;;;;;;0.30;0.30;;;22.40;70.30;;;;;;5124746;28;20381;-42
2021/06/10 11:10:06;;;;;;;1.73;0.30;;;22.40;70.30;;;;;;5125284;28;20024;-42
2021/06/10 11:12:44;;;;;;;0.28;0.28;;;22.40;70.40;;;;;;5125578;28;20492;-42
2021/06/10 11:15:26;;;;;;;0.17;0.17;;;22.40;70.20;;;;;;5125305;28;20139;-41
2021/06/10 11:18:02;;;;;;;0.30;0.25;;;22.40;70.30;;;;;;5124930;28;20032;-42
2021/06/10 11:20:46;;;;;;;0.30;0.30;;;22.40;70.30;;;;;;5124954;28;20027;-42
2021/06/10 11:23:20;;;;;;;0.30;0.30;;;22.40;70.30;;;;;;5124950;28;20023;-42
2021/06/10 11:25:52;;;;;;;0.35;0.30;;;22.40;70.30;;;;;;5125038;28;20024;-43
2021/06/10 11:28:20;;;;;;;0.30;0.25;;;22.40;70.20;;;;;;5125009;28;20459;-42
2021/06/10 11:30:46;;;;;;;;;;;22.30;70.40;;;;;;5124490;28;20047;-42
2021/06/10 11:33:18;;;;;;;0.57;0.30;;;22.30;70.30;;;;;;5125160;28;19958;-42
2021/06/10 11:35:48;;;;;;;0.30;0.30;;;22.40;70.60;;;;;;5124768;28;20778;-41
2021/06/10 11:38:19;;;;;;;0.30;0.30;;;22.30;70.50;;;;;;5123325;28;20027;-42
2021/06/10 11:40:47;;;;;;;0.30;0.30;;;22.30;70.60;;;;;;5124776;28;20028;-41
2021/06/10 11:43:13;;;;;;;0.30;0.30;;;22.30;70.40;;;;;;5124875;28;20487;-43
2021/06/10 11:45:40;;;;;;;0.20;0.20;;;22.30;70.60;;;;;;5124943;28;20038;-42
2021/06/10 11:48:06;;;;;;;0.47;0.33;;;22.30;70.60;;;;;;5123779;28;20039;-41
2021/06/10 11:50:37;;;;;;;0.27;0.20;;;22.30;70.60;;;;;;5118828;28;20023;-42
2021/06/10 11:53:09;;;;;;;0.40;0.40;;;22.30;70.60;;;;;;5124683;28;20052;-41
2021/06/10 11:55:39;;;;;;;0.30;0.30;;;22.30;70.80;;;;;;5124576;28;20019;-41
2021/06/10 11:58:09;;;;;;;0.30;0.30;;;22.30;70.80;;;;;;5124179;28;20055;-41
2021/06/10 12:00:37;;;;;;;0.30;0.30;;;22.30;71.00;;;;;;5124334;28;20024;-42
2021/06/10 12:03:05;;;;;;;0.57;0.40;;;22.30;70.70;;;;;;5124432;28;20038;-41
2021/06/10 12:05:32;;;;;;;0.20;0.20;;;22.30;71.00;;;;;;5122602;28;20103;-41
2021/06/10 12:08:08;;;;;;;;;;;22.30;70.80;;;;;;5123860;28;20035;-41
2021/06/10 12:10:34;;;;;;;0.40;0.40;;;22.30;71.10;;;;;;5124103;27;19904;-42
2021/06/10 12:13:00;;;;;;;0.38;0.30;;;22.30;71.10;;;;;;5124493;28;20076;-41
2021/06/10 12:15:29;;;;;;;0.68;0.32;;;22.30;70.90;;;;;;5124147;28;20058;-41
2021/06/10 12:18:10;;;;;;;0.30;0.30;;;22.30;71.10;;;;;;5123801;28;20522;-42
2021/06/10 12:20:41;;;;;;;0.28;0.28;;;22.30;70.70;;;;;;5123966;28;20112;-41
2021/06/10 12:23:17;;;;;;;0.70;0.35;;;22.30;70.80;;;;;;5124178;28;20023;-41
2021/06/10 12:25:50;;;;;;;0.30;0.30;;;22.40;70.50;;;;;;5124007;28;20027;-41
2021/06/10 12:28:37;;;;;;;0.20;0.20;;;22.40;71.00;;;;;;5123538;28;20099;-41
2021/06/10 12:31:11;;;;;;;0.20;0.20;;;22.40;70.80;;;;;;5123848;28;20023;-41
2021/06/10 12:33:38;;;;;;;0.30;0.30;;;22.40;71.20;;;;;;5123819;28;20023;-41
2021/06/10 12:36:05;;;;;;;0.30;0.30;;;22.40;71.60;;;;;;5123675;28;20016;-41
2021/06/10 12:38:36;;;;;;;;;;;22.40;71.60;;;;;;5124096;28;20144;-41
2021/06/10 12:41:22;;;;;;;0.30;0.30;;;22.40;71.30;;;;;;5123699;28;19904;-40
2021/06/10 12:43:51;;;;;;;1.10;0.32;;;22.40;71.50;;;;;;5123742;28;20035;-42
2021/06/10 12:46:17;;;;;;;0.35;0.35;;;22.40;71.50;;;;;;5123932;28;20439;-41
2021/06/10 12:48:57;;;;;;;0.25;0.25;;;22.40;71.50;;;;;;5122852;28;20036;-41
2021/06/10 12:51:31;;;;;;;0.30;0.30;;;22.40;71.20;;;;;;5117365;28;20023;-40
2021/06/10 12:54:08;;;;;;;0.40;0.30;;;22.40;71.10;;;;;;5103387;28;20515;-41
2021/06/10 12:56:49;;;;;;;0.93;0.30;;;22.40;70.80;;;;;;5102930;28;20087;-41